createdAt,value
2022-08-10T00:01:52.097Z,48.99
2022-08-10T00:04:24.351Z,49.01
2022-08-10T00:06:54.113Z,49.23
2022-08-10T00:09:24.120Z,49.28
2022-08-10T00:11:52.829Z,49.19
2022-08-10T00:14:20.423Z,49.53
2022-08-10T00:16:47.782Z,49.64
2022-08-10T00:19:16.405Z,49.75
2022-08-10T00:21:45.962Z,50.08
2022-08-10T00:24:13.978Z,49.54
2022-08-10T00:27:52.660Z,49.82
2022-08-10T00:29:29.607Z,50.23
2022-08-10T00:31:59.229Z,50.47
2022-08-10T00:34:31.253Z,50.56
2022-08-10T00:37:00.301Z,50.67
2022-08-10T00:39:28.553Z,50.69
2022-08-10T00:42:06.535Z,50.87
2022-08-10T00:44:41.659Z,50.70
2022-08-10T00:47:10.392Z,50.72
2022-08-10T00:49:59.078Z,50.86
2022-08-10T00:52:29.485Z,50.95
2022-08-10T00:54:58.132Z,51.21
2022-08-10T00:57:26.611Z,51.08
2022-08-10T00:59:58.446Z,50.91
2022-08-10T01:02:30.405Z,50.91
2022-08-10T01:05:03.664Z,51.06
2022-08-10T01:07:37.611Z,51.12
2022-08-10T01:10:15.455Z,51.04
2022-08-10T01:13:11.142Z,51.16
2022-08-10T01:15:57.381Z,51.20
2022-08-10T01:18:47.172Z,51.35
2022-08-10T01:21:33.046Z,51.40
2022-08-10T01:24:25.063Z,51.37
2022-08-10T01:27:04.446Z,51.37
2022-08-10T01:29:55.046Z,51.59
2022-08-10T01:32:54.534Z,51.71
2022-08-10T01:35:35.913Z,51.79
2022-08-10T01:38:38.222Z,51.97
2022-08-10T01:41:11.293Z,51.98
2022-08-10T01:44:03.893Z,52.06
2022-08-10T01:46:33.555Z,52.15
2022-08-10T01:49:05.138Z,52.50
2022-08-10T01:51:38.752Z,52.66
2022-08-10T01:54:12.649Z,52.59
2022-08-10T01:56:45.610Z,52.59
2022-08-10T01:59:18.904Z,52.58
2022-08-10T02:01:56.395Z,52.62
2022-08-10T02:04:28.361Z,52.68
2022-08-10T02:06:57.399Z,52.60
2022-08-10T02:09:27.705Z,52.55
2022-08-10T02:12:07.460Z,52.60
2022-08-10T02:14:44.871Z,52.74
2022-08-10T02:18:00.466Z,52.97
2022-08-10T02:20:18.782Z,53.24
2022-08-10T02:23:17.849Z,53.22
2022-08-10T02:25:47.001Z,53.29
2022-08-10T02:28:29.917Z,53.15
2022-08-10T02:31:23.134Z,53.20
2022-08-10T02:33:57.853Z,53.18
2022-08-10T02:36:30.953Z,53.29
2022-08-10T02:39:02.614Z,53.40
2022-08-10T02:45:08.204Z,53.30
2022-08-10T02:45:19.722Z,53.42
2022-08-10T02:47:50.990Z,53.34
2022-08-10T02:50:33.191Z,53.26
2022-08-10T02:53:55.053Z,53.32
2022-08-10T02:56:34.479Z,53.51
2022-08-10T02:59:21.771Z,53.69
2022-08-10T03:01:54.411Z,53.74
2022-08-10T03:04:55.302Z,53.72
2022-08-10T03:07:43.342Z,53.76
2022-08-10T03:10:19.461Z,53.80
2022-08-10T03:13:02.748Z,53.68
2022-08-10T03:15:32.570Z,53.88
2022-08-10T03:18:01.652Z,53.97
2022-08-10T03:20:38.312Z,54.09
2022-08-10T03:23:16.206Z,54.08
2022-08-10T03:25:53.064Z,54.50
2022-08-10T03:28:25.959Z,54.35
2022-08-10T03:30:54.465Z,54.41
2022-08-10T03:33:24.712Z,54.54
2022-08-10T03:36:41.642Z,54.49
2022-08-10T03:38:44.916Z,54.58
2022-08-10T03:41:16.322Z,54.66
2022-08-10T03:43:47.492Z,54.59
2022-08-10T03:46:19.436Z,54.72
2022-08-10T03:48:52.659Z,54.86
2022-08-10T03:51:22.876Z,55.00
2022-08-10T03:54:05.966Z,54.90
2022-08-10T03:56:37.263Z,54.94
2022-08-10T03:59:11.284Z,55.03
2022-08-10T04:02:52.384Z,54.85
2022-08-10T04:04:29.702Z,54.72
2022-08-10T04:06:58.953Z,54.88
2022-08-10T04:09:53.353Z,54.97
2022-08-10T04:12:19.568Z,55.10
2022-08-10T04:14:50.507Z,54.85
2022-08-10T04:18:03.596Z,54.86
2022-08-10T04:20:15.635Z,55.00
2022-08-10T04:22:46.736Z,55.03
2022-08-10T04:25:15.474Z,55.19
2022-08-10T04:27:44.345Z,55.30
2022-08-10T04:30:17.138Z,55.28
2022-08-10T04:32:48.530Z,55.10
2022-08-10T04:35:20.433Z,54.66
2022-08-10T04:37:50.762Z,54.24
2022-08-10T04:40:29.902Z,53.81
2022-08-10T04:43:03.319Z,53.67
2022-08-10T04:45:49.123Z,53.79
2022-08-10T04:48:42.550Z,53.84
2022-08-10T04:51:17.148Z,53.94
2022-08-10T04:54:04.559Z,53.95
2022-08-10T04:56:37.095Z,53.95
2022-08-10T04:59:07.181Z,54.06
2022-08-10T05:02:21.393Z,54.50
2022-08-10T05:04:34.488Z,54.00
2022-08-10T05:07:08.814Z,53.92
2022-08-10T05:10:01.255Z,53.90
2022-08-10T05:12:27.727Z,52.78
2022-08-10T05:14:56.153Z,53.03
2022-08-10T05:17:23.755Z,53.05
2022-08-10T05:20:02.792Z,52.03
2022-08-10T05:22:38.443Z,50.85
2022-08-10T05:25:09.003Z,51.55
2022-08-10T05:27:36.678Z,52.16
2022-08-10T05:30:05.800Z,52.08
2022-08-10T05:32:56.300Z,51.75
2022-08-10T05:35:25.006Z,51.40
2022-08-10T05:38:13.313Z,50.89
2022-08-10T05:40:47.035Z,50.64
2022-08-10T05:43:17.362Z,50.78
2022-08-10T05:46:19.014Z,51.09
2022-08-10T05:48:54.136Z,50.69
2022-08-10T05:51:25.178Z,50.49
2022-08-10T05:54:01.008Z,50.49
2022-08-10T05:56:54.328Z,49.74
2022-08-10T06:00:33.201Z,49.43
2022-08-10T06:02:36.354Z,49.69
2022-08-10T06:05:11.100Z,49.00
2022-08-10T06:07:44.075Z,49.19
2022-08-10T06:10:31.249Z,48.65
2022-08-10T06:13:30.053Z,48.18
2022-08-10T06:16:02.447Z,48.39
2022-08-10T06:18:31.467Z,47.69
2022-08-10T06:21:00.428Z,47.40
2022-08-10T06:23:33.265Z,46.87
2022-08-10T06:26:09.917Z,45.74
2022-08-10T06:29:02.332Z,46.25
2022-08-10T06:31:47.906Z,45.17
2022-08-10T06:34:38.644Z,44.99
2022-08-10T06:37:08.413Z,44.59
2022-08-10T06:39:59.208Z,43.20
2022-08-10T06:42:32.244Z,43.81
2022-08-10T06:45:02.945Z,43.75
2022-08-10T06:47:46.430Z,43.64
2022-08-10T06:50:56.426Z,43.55
2022-08-10T06:53:53.605Z,42.09
2022-08-10T06:56:35.899Z,41.95
2022-08-10T06:59:14.586Z,40.80
2022-08-10T07:02:03.872Z,40.44
2022-08-10T07:04:38.456Z,40.57
2022-08-10T07:07:08.693Z,40.50
2022-08-10T07:09:41.698Z,39.67
2022-08-10T07:12:11.975Z,38.17
2022-08-10T07:14:47.521Z,38.73
2022-08-10T07:17:24.257Z,38.47
2022-08-10T07:19:57.150Z,38.01
2022-08-10T07:23:01.675Z,38.66
2022-08-10T07:25:33.107Z,37.69
2022-08-10T07:28:11.603Z,37.54
2022-08-10T07:30:49.792Z,37.50
2022-08-10T07:33:26.065Z,37.45
2022-08-10T07:35:56.667Z,37.32
2022-08-10T07:38:29.188Z,37.27
2022-08-10T07:41:01.472Z,36.47
2022-08-10T07:43:39.470Z,36.19
2022-08-10T07:46:13.541Z,35.57
2022-08-10T07:48:48.060Z,35.62
2022-08-10T07:51:19.719Z,34.72
2022-08-10T07:54:01.980Z,35.36
2022-08-10T07:56:49.523Z,34.69
2022-08-10T07:59:40.156Z,34.04
2022-08-10T08:02:31.643Z,34.55
2022-08-10T08:05:51.781Z,33.71
2022-08-10T08:08:36.406Z,32.79
2022-08-10T08:11:25.654Z,33.21
2022-08-10T08:14:08.936Z,32.99
2022-08-10T08:16:53.333Z,32.74
2022-08-10T08:19:28.266Z,32.50
2022-08-10T08:24:06.549Z,31.31
2022-08-10T08:28:15.814Z,30.16
2022-08-10T08:30:50.991Z,31.33
2022-08-10T08:33:42.135Z,31.35
2022-08-10T08:36:10.899Z,30.29
2022-08-10T08:38:39.724Z,30.87
2022-08-10T08:41:16.802Z,30.18
2022-08-10T08:48:05.159Z,30.65
2022-08-10T08:50:37.308Z,30.49
2022-08-10T08:53:22.315Z,30.24
2022-08-10T08:56:05.852Z,30.12
2022-08-10T08:58:52.069Z,30.37
2022-08-10T09:01:38.261Z,30.44
2022-08-10T09:04:29.011Z,30.25
2022-08-10T09:07:59.869Z,30.30
2022-08-10T09:10:37.313Z,30.60
2022-08-10T09:13:30.645Z,30.26
2022-08-10T09:16:17.158Z,30.41
2022-08-10T09:18:55.912Z,30.50
2022-08-10T09:21:59.127Z,30.61
2022-08-10T09:24:46.317Z,30.74
2022-08-10T09:27:22.463Z,30.90
2022-08-10T09:30:02.264Z,30.88
2022-08-10T09:36:21.410Z,30.75
2022-08-10T09:36:33.937Z,31.08
2022-08-10T09:40:12.540Z,30.77
2022-08-10T09:42:15.756Z,30.56
2022-08-10T09:44:57.258Z,30.57
2022-08-10T09:48:38.366Z,30.79
2022-08-10T09:51:47.964Z,30.45
2022-08-10T09:54:54.310Z,30.60
2022-08-10T09:57:44.251Z,30.37
2022-08-10T10:00:20.292Z,30.37
2022-08-10T10:03:29.469Z,30.25
2022-08-10T10:06:26.805Z,30.41
2022-08-10T10:09:11.050Z,30.47
2022-08-10T10:11:58.117Z,30.12
2022-08-10T10:15:25.200Z,30.36
2022-08-10T10:18:19.003Z,30.20
2022-08-10T10:21:54.085Z,30.29
2022-08-10T10:24:35.948Z,30.50
2022-08-10T10:27:28.733Z,30.46
2022-08-10T10:30:08.541Z,30.33
2022-08-10T10:32:57.835Z,30.19
2022-08-10T10:35:43.588Z,30.36
2022-08-10T10:38:13.554Z,30.58
2022-08-10T10:41:08.141Z,30.46
2022-08-10T10:43:54.091Z,30.47
2022-08-10T10:46:44.026Z,30.63
2022-08-10T10:49:39.682Z,30.55
2022-08-10T10:52:32.188Z,30.76
2022-08-10T10:55:18.104Z,30.82
2022-08-10T10:58:19.686Z,30.85
2022-08-10T11:01:27.491Z,30.94
2022-08-10T11:04:14.377Z,31.08
2022-08-10T11:07:13.144Z,31.26
2022-08-10T11:10:09.610Z,31.10
2022-08-10T11:14:25.087Z,31.25
2022-08-10T11:16:57.534Z,31.29
2022-08-10T11:20:02.342Z,31.51
2022-08-10T11:22:51.649Z,31.61
2022-08-10T11:25:29.396Z,31.67
2022-08-10T11:28:30.346Z,31.75
2022-08-10T11:31:33.447Z,31.84
2022-08-10T11:34:47.305Z,31.89
2022-08-10T11:37:22.501Z,31.78
2022-08-10T11:39:59.766Z,31.76
2022-08-10T11:42:48.614Z,31.67
2022-08-10T11:45:32.904Z,31.65
2022-08-10T11:48:53.007Z,31.55
2022-08-10T11:51:33.604Z,31.64
2022-08-10T11:54:15.271Z,31.80
2022-08-10T11:57:03.242Z,31.64
2022-08-10T11:59:58.357Z,31.84
2022-08-10T12:02:42.097Z,31.79
2022-08-10T12:05:16.105Z,31.76
2022-08-10T12:10:03.616Z,31.62
2022-08-10T12:10:41.129Z,31.74
2022-08-10T12:13:17.691Z,31.42
2022-08-10T12:15:52.045Z,31.69
2022-08-10T12:18:56.951Z,31.79
2022-08-10T12:21:30.349Z,31.45
2022-08-10T12:24:08.470Z,31.49
2022-08-10T12:27:02.876Z,31.57
2022-08-10T12:29:47.479Z,31.76
2022-08-10T12:32:27.064Z,31.91
2022-08-10T12:35:12.574Z,32.28
2022-08-10T12:37:55.813Z,32.22
2022-08-10T12:40:36.529Z,32.44
2022-08-10T12:44:06.989Z,32.50
2022-08-10T12:46:29.298Z,32.51
2022-08-10T12:49:03.788Z,32.65
2022-08-10T12:51:41.109Z,32.61
2022-08-10T12:54:32.647Z,32.70
2022-08-10T12:57:08.968Z,32.69
2022-08-10T12:59:43.521Z,32.56
2022-08-10T13:02:18.854Z,32.46
2022-08-10T13:04:50.386Z,32.49
2022-08-10T13:08:26.079Z,32.60
2022-08-10T13:10:20.796Z,32.77
2022-08-10T13:12:51.508Z,32.72
2022-08-10T13:15:48.832Z,32.64
2022-08-10T13:18:26.438Z,32.71
2022-08-10T13:21:20.736Z,32.58
2022-08-10T13:24:04.061Z,32.58
2022-08-10T13:27:23.600Z,32.52
2022-08-10T13:29:41.004Z,32.51
2022-08-10T13:32:11.394Z,32.43
2022-08-10T13:34:54.709Z,32.25
2022-08-10T13:37:28.067Z,32.31
2022-08-10T13:40:00.949Z,32.19
2022-08-10T13:42:34.321Z,32.24
2022-08-10T13:45:12.761Z,32.25
2022-08-10T13:47:49.687Z,32.09
2022-08-10T13:50:33.164Z,32.28
2022-08-10T13:53:11.485Z,32.44
2022-08-10T13:55:53.983Z,32.40
2022-08-10T13:58:38.358Z,32.47
2022-08-10T14:01:14.092Z,32.44
2022-08-10T14:03:44.808Z,32.45
2022-08-10T14:06:15.966Z,32.53
2022-08-10T14:08:51.848Z,32.44
2022-08-10T14:11:21.782Z,32.31
2022-08-10T14:13:56.434Z,32.51
2022-08-10T14:16:25.859Z,32.51
2022-08-10T14:18:57.710Z,32.44
2022-08-10T14:21:26.507Z,32.35
2022-08-10T14:23:54.967Z,32.36
2022-08-10T14:26:26.616Z,32.36
2022-08-10T14:28:58.215Z,32.44
2022-08-10T14:31:33.330Z,32.34
2022-08-10T14:34:04.369Z,32.28
2022-08-10T14:36:42.171Z,32.42
2022-08-10T14:39:20.294Z,32.37
2022-08-10T14:42:02.843Z,32.40
2022-08-10T14:44:53.781Z,32.45
2022-08-10T14:47:53.718Z,32.64
2022-08-10T14:50:32.783Z,32.54
2022-08-10T14:53:09.274Z,32.38
2022-08-10T14:55:58.656Z,32.57
2022-08-10T14:58:58.859Z,32.48
2022-08-10T15:02:01.493Z,32.70
2022-08-10T15:04:28.324Z,32.34
2022-08-10T15:07:22.533Z,32.44
2022-08-10T15:10:00.551Z,32.52
2022-08-10T15:12:38.329Z,32.51
2022-08-10T15:15:16.497Z,32.46
2022-08-10T15:17:57.362Z,32.55
2022-08-10T15:20:29.365Z,32.39
2022-08-10T15:23:30.089Z,32.51
2022-08-10T15:26:10.703Z,32.55
2022-08-10T15:29:23.762Z,32.68
2022-08-10T15:31:59.850Z,32.86
2022-08-10T15:34:48.203Z,33.00
2022-08-10T15:37:39.732Z,32.96
2022-08-10T15:40:25.764Z,33.03
2022-08-10T15:43:20.895Z,33.12
2022-08-10T15:46:00.091Z,33.06
2022-08-10T15:48:38.767Z,33.03
2022-08-10T15:51:17.278Z,32.87
2022-08-10T15:53:51.391Z,33.08
2022-08-10T15:56:43.194Z,33.09
2022-08-10T15:59:15.848Z,32.97
2022-08-10T16:02:13.111Z,33.00
2022-08-10T16:04:45.876Z,33.10
2022-08-10T16:07:39.170Z,33.08
2022-08-10T16:10:29.251Z,33.10
2022-08-10T16:13:00.817Z,33.10
2022-08-10T16:15:31.815Z,33.31
2022-08-10T16:18:08.987Z,33.25
2022-08-10T16:20:51.431Z,33.36
2022-08-10T16:23:32.223Z,33.18
2022-08-10T16:26:14.419Z,33.19
2022-08-10T16:28:51.454Z,33.14
2022-08-10T16:31:22.212Z,33.18
2022-08-10T16:33:54.959Z,33.20
2022-08-10T16:36:49.130Z,33.26
2022-08-10T16:39:57.836Z,33.28
2022-08-10T16:42:22.005Z,33.13
2022-08-10T16:45:00.485Z,33.09
2022-08-10T16:47:30.914Z,33.24
2022-08-10T16:50:01.942Z,33.30
2022-08-10T16:52:32.047Z,33.14
2022-08-10T16:55:23.998Z,33.26
2022-08-10T16:58:08.640Z,33.19
2022-08-10T17:00:38.403Z,33.18
2022-08-10T17:04:08.380Z,33.24
2022-08-10T17:07:05.284Z,33.28
2022-08-10T17:10:04.138Z,33.21
2022-08-10T17:13:04.226Z,33.33
2022-08-10T17:16:04.826Z,33.43
2022-08-10T17:18:53.715Z,33.28
2022-08-10T17:21:52.508Z,33.29
2022-08-10T17:24:53.481Z,33.37
2022-08-10T17:28:10.499Z,33.42
2022-08-10T17:31:53.315Z,33.51
2022-08-10T17:34:51.427Z,33.51
2022-08-10T17:37:47.477Z,33.66
2022-08-10T17:40:41.705Z,33.72
2022-08-10T17:43:46.501Z,33.83
2022-08-10T17:46:17.282Z,33.91
2022-08-10T17:48:47.406Z,33.98
2022-08-10T17:51:16.451Z,34.26
2022-08-10T17:53:49.186Z,34.41
2022-08-10T17:56:19.715Z,34.42
2022-08-10T17:58:57.352Z,34.37
2022-08-10T18:01:41.812Z,34.82
2022-08-10T18:04:20.976Z,34.75
2022-08-10T18:06:54.541Z,34.86
2022-08-10T18:09:30.784Z,34.95
2022-08-10T18:12:10.178Z,35.07
2022-08-10T18:14:41.378Z,35.04
2022-08-10T18:17:14.790Z,35.31
2022-08-10T18:19:46.572Z,35.22
2022-08-10T18:22:16.102Z,35.47
2022-08-10T18:24:45.308Z,35.44
2022-08-10T18:27:14.585Z,35.49
2022-08-10T18:29:50.825Z,35.65
2022-08-10T18:32:22.433Z,35.61
2022-08-10T18:34:54.188Z,35.76
2022-08-10T18:37:25.678Z,35.79
2022-08-10T18:40:01.641Z,35.76
2022-08-10T18:42:44.582Z,35.99
2022-08-10T18:45:26.678Z,36.15
2022-08-10T18:48:00.472Z,36.07
2022-08-10T18:50:34.199Z,36.34
2022-08-10T18:53:10.224Z,36.20
2022-08-10T18:55:46.329Z,36.37
2022-08-10T18:58:43.630Z,36.60
2022-08-10T19:01:28.549Z,36.62
2022-08-10T19:04:27.550Z,36.63
2022-08-10T19:07:05.085Z,36.79
2022-08-10T19:09:50.952Z,36.70
2022-08-10T19:12:39.962Z,36.90
2022-08-10T19:15:29.954Z,37.01
2022-08-10T19:18:22.058Z,37.12
2022-08-10T19:20:59.970Z,37.07
2022-08-10T19:23:36.442Z,37.09
2022-08-10T19:26:44.341Z,37.25
2022-08-10T19:30:09.560Z,37.33
2022-08-10T19:32:46.065Z,37.39
2022-08-10T19:35:25.662Z,37.48
2022-08-10T19:38:32.002Z,37.60
2022-08-10T19:41:19.899Z,37.72
2022-08-10T19:44:43.314Z,37.98
2022-08-10T19:47:49.457Z,37.93
2022-08-10T19:50:44.538Z,38.02
2022-08-10T19:53:39.422Z,38.17
2022-08-10T19:57:01.101Z,38.23
2022-08-10T20:00:17.101Z,38.24
2022-08-10T20:02:36.325Z,38.38
2022-08-10T20:05:15.940Z,38.36
2022-08-10T20:07:58.177Z,38.40
2022-08-10T20:10:45.021Z,38.64
2022-08-10T20:13:33.895Z,38.76
2022-08-10T20:16:21.180Z,38.82
2022-08-10T20:18:54.368Z,38.92
2022-08-10T20:21:27.776Z,38.89
2022-08-10T20:24:05.783Z,38.94
2022-08-10T20:26:40.687Z,39.29
2022-08-10T20:29:56.963Z,39.35
2022-08-10T20:32:17.338Z,39.51
2022-08-10T20:34:49.787Z,39.78
2022-08-10T20:37:45.080Z,39.83
2022-08-10T20:40:49.633Z,40.03
2022-08-10T20:43:29.456Z,40.04
2022-08-10T20:46:09.295Z,40.18
2022-08-10T20:48:46.363Z,40.59
2022-08-10T20:51:19.258Z,40.69
2022-08-10T20:53:56.239Z,40.71
2022-08-10T20:56:44.397Z,40.78
2022-08-10T20:59:33.494Z,40.80
2022-08-10T21:02:22.332Z,40.62
2022-08-10T21:05:25.074Z,40.86
2022-08-10T21:08:02.430Z,40.98
2022-08-10T21:10:56.412Z,41.09
2022-08-10T21:13:45.246Z,41.29
2022-08-10T21:16:37.495Z,41.33
2022-08-10T21:19:16.057Z,41.54
2022-08-10T21:24:52.045Z,41.77
2022-08-10T21:25:41.746Z,41.63
2022-08-10T21:27:48.571Z,41.78
2022-08-10T21:30:28.945Z,41.83
2022-08-10T21:33:06.432Z,41.96
2022-08-10T21:35:42.305Z,41.87
2022-08-10T21:38:27.892Z,41.89
2022-08-10T21:41:56.959Z,41.81
2022-08-10T21:45:08.819Z,42.11
2022-08-10T21:48:17.629Z,42.26
2022-08-10T21:51:08.791Z,42.30
2022-08-10T21:54:01.133Z,42.47
2022-08-10T21:57:08.665Z,42.52
2022-08-10T22:00:03.491Z,42.51
2022-08-10T22:02:52.610Z,42.82
2022-08-10T22:05:48.151Z,42.85
2022-08-10T22:08:38.495Z,43.18
2022-08-10T22:11:29.689Z,43.52
2022-08-10T22:14:26.592Z,43.59
2022-08-10T22:17:59.573Z,43.67
2022-08-10T22:21:03.073Z,44.03
2022-08-10T22:24:06.660Z,44.18
2022-08-10T22:27:06.069Z,44.40
2022-08-10T22:29:57.916Z,44.25
2022-08-10T22:33:09.008Z,44.21
2022-08-10T22:36:32.782Z,44.04
2022-08-10T22:40:07.395Z,44.09
2022-08-10T22:43:11.023Z,44.28
2022-08-10T22:46:12.758Z,44.49
2022-08-10T22:48:59.487Z,44.73
2022-08-10T22:51:35.762Z,44.74
2022-08-10T22:54:59.161Z,44.82
2022-08-10T22:57:45.695Z,45.08
2022-08-10T23:00:18.485Z,45.03
2022-08-10T23:02:57.264Z,44.83
2022-08-10T23:05:32.328Z,45.05
2022-08-10T23:08:08.382Z,45.04
2022-08-10T23:10:41.296Z,45.13
2022-08-10T23:13:24.395Z,45.36
2022-08-10T23:16:43.280Z,45.39
2022-08-10T23:19:22.261Z,45.68
2022-08-10T23:22:21.812Z,45.61
2022-08-10T23:24:54.668Z,45.83
2022-08-10T23:27:38.967Z,46.05
2022-08-10T23:30:17.946Z,46.35
2022-08-10T23:32:58.958Z,46.25
2022-08-10T23:36:27.752Z,46.15
2022-08-10T23:38:22.780Z,46.04
2022-08-10T23:40:53.626Z,45.99
2022-08-10T23:43:53.418Z,46.01
2022-08-10T23:46:24.039Z,46.25
2022-08-10T23:48:57.163Z,46.50
2022-08-10T23:51:38.670Z,46.50
2022-08-10T23:54:22.075Z,46.68
2022-08-10T23:56:53.959Z,46.78
2022-08-10T23:59:25.566Z,46.76
